sensor_id;sensor_type;location;lat;lon;timestamp;temperature;humidity
1800;DHT22;919;48.274;12.292;2023-12-07T00:00:26;1.50;99.90
1800;DHT22;919;48.274;12.292;2023-12-07T00:02:53;1.40;99.90
1800;DHT22;919;48.274;12.292;2023-12-07T00:05:20;1.40;99.90
1800;DHT22;919;48.274;12.292;2023-12-07T00:07:47;1.40;99.90
1800;DHT22;919;48.274;12.292;2023-12-07T00:10:15;1.30;99.90
1800;DHT22;919;48.274;12.292;2023-12-07T00:12:41;1.30;99.90
1800;DHT22;919;48.274;12.292;2023-12-07T00:15:08;1.30;99.90
1800;DHT22;919;48.274;12.292;2023-12-07T00:17:35;1.30;99.90
1800;DHT22;919;48.274;12.292;2023-12-07T00:20:03;1.20;99.90
1800;DHT22;919;48.274;12.292;2023-12-07T00:22:30;1.20;99.90
1800;DHT22;919;48.274;12.292;2023-12-07T00:24:57;1.20;99.90
1800;DHT22;919;48.274;12.292;2023-12-07T00:27:25;1.20;99.90
1800;DHT22;919;48.274;12.292;2023-12-07T00:29:52;1.20;99.90
1800;DHT22;919;48.274;12.292;2023-12-07T00:32:19;1.30;99.90
1800;DHT22;919;48.274;12.292;2023-12-07T00:34:45;1.30;99.90
1800;DHT22;919;48.274;12.292;2023-12-07T00:37:12;1.20;99.90
1800;DHT22;919;48.274;12.292;2023-12-07T00:39:40;1.10;99.90
1800;DHT22;919;48.274;12.292;2023-12-07T00:42:07;1.10;99.90
1800;DHT22;919;48.274;12.292;2023-12-07T00:44:39;1.10;99.90
1800;DHT22;919;48.274;12.292;2023-12-07T00:47:05;1.10;99.90
1800;DHT22;919;48.274;12.292;2023-12-07T00:49:32;1.00;99.90
1800;DHT22;919;48.274;12.292;2023-12-07T00:51:59;1.10;99.90
1800;DHT22;919;48.274;12.292;2023-12-07T00:54:26;1.00;99.90
1800;DHT22;919;48.274;12.292;2023-12-07T00:56:52;1.00;99.90
1800;DHT22;919;48.274;12.292;2023-12-07T00:59:19;0.90;99.90
1800;DHT22;919;48.274;12.292;2023-12-07T01:01:47;0.90;99.90
1800;DHT22;919;48.274;12.292;2023-12-07T01:04:14;0.90;99.90
1800;DHT22;919;48.274;12.292;2023-12-07T01:06:41;0.80;99.90
1800;DHT22;919;48.274;12.292;2023-12-07T01:09:08;0.70;99.90
1800;DHT22;919;48.274;12.292;2023-12-07T01:11:38;0.70;99.90
1800;DHT22;919;48.274;12.292;2023-12-07T01:14:05;0.70;99.90
1800;DHT22;919;48.274;12.292;2023-12-07T01:16:32;0.60;99.90
1800;DHT22;919;48.274;12.292;2023-12-07T01:19:00;0.50;99.90
1800;DHT22;919;48.274;12.292;2023-12-07T01:21:27;0.40;99.90
1800;DHT22;919;48.274;12.292;2023-12-07T01:23:54;0.30;99.90
1800;DHT22;919;48.274;12.292;2023-12-07T01:26:20;0.20;99.90
1800;DHT22;919;48.274;12.292;2023-12-07T01:28:47;0.20;99.90
1800;DHT22;919;48.274;12.292;2023-12-07T01:31:14;0.20;99.90
1800;DHT22;919;48.274;12.292;2023-12-07T01:33:39;0.10;99.90
1800;DHT22;919;48.274;12.292;2023-12-07T01:36:08;0.10;99.90
1800;DHT22;919;48.274;12.292;2023-12-07T01:38:35;0.00;99.90
1800;DHT22;919;48.274;12.292;2023-12-07T01:41:02;-0.10;99.90
1800;DHT22;919;48.274;12.292;2023-12-07T01:43:28;-0.20;99.90
1800;DHT22;919;48.274;12.292;2023-12-07T01:45:57;-0.30;99.90
1800;DHT22;919;48.274;12.292;2023-12-07T01:48:26;-0.30;99.90
1800;DHT22;919;48.274;12.292;2023-12-07T01:50:53;-0.30;99.90
1800;DHT22;919;48.274;12.292;2023-12-07T01:53:23;-0.40;99.90
1800;DHT22;919;48.274;12.292;2023-12-07T01:55:50;-0.40;99.90
1800;DHT22;919;48.274;12.292;2023-12-07T01:58:18;-0.40;99.90
1800;DHT22;919;48.274;12.292;2023-12-07T02:00:46;-0.50;99.90
1800;DHT22;919;48.274;12.292;2023-12-07T02:03:12;-0.60;99.90
1800;DHT22;919;48.274;12.292;2023-12-07T02:05:42;-0.60;99.90
1800;DHT22;919;48.274;12.292;2023-12-07T02:08:09;-0.60;99.90
1800;DHT22;919;48.274;12.292;2023-12-07T02:10:37;-0.70;99.90
1800;DHT22;919;48.274;12.292;2023-12-07T02:13:04;-0.90;99.90
1800;DHT22;919;48.274;12.292;2023-12-07T02:15:31;-1.10;99.90
1800;DHT22;919;48.274;12.292;2023-12-07T02:18:02;-1.10;99.90
1800;DHT22;919;48.274;12.292;2023-12-07T02:20:33;-1.20;99.90
1800;DHT22;919;48.274;12.292;2023-12-07T02:23:04;-1.20;99.90
1800;DHT22;919;48.274;12.292;2023-12-07T02:25:39;-1.30;99.90
1800;DHT22;919;48.274;12.292;2023-12-07T02:28:08;-1.30;99.90
1800;DHT22;919;48.274;12.292;2023-12-07T02:30:34;-1.20;99.90
1800;DHT22;919;48.274;12.292;2023-12-07T02:33:01;-1.20;99.90
1800;DHT22;919;48.274;12.292;2023-12-07T02:35:32;-1.30;99.90
1800;DHT22;919;48.274;12.292;2023-12-07T02:37:59;-1.30;99.90
1800;DHT22;919;48.274;12.292;2023-12-07T02:40:28;-1.30;99.90
1800;DHT22;919;48.274;12.292;2023-12-07T02:42:55;-1.30;99.90
1800;DHT22;919;48.274;12.292;2023-12-07T02:45:24;-1.30;99.90
1800;DHT22;919;48.274;12.292;2023-12-07T02:47:51;-1.40;99.90
1800;DHT22;919;48.274;12.292;2023-12-07T02:50:18;-1.60;99.90
1800;DHT22;919;48.274;12.292;2023-12-07T02:52:45;-1.60;99.90
1800;DHT22;919;48.274;12.292;2023-12-07T02:55:12;-1.70;99.90
1800;DHT22;919;48.274;12.292;2023-12-07T02:57:39;-1.70;99.90
1800;DHT22;919;48.274;12.292;2023-12-07T03:00:06;-1.70;99.90
1800;DHT22;919;48.274;12.292;2023-12-07T03:02:35;-1.70;99.90
1800;DHT22;919;48.274;12.292;2023-12-07T03:05:02;-1.80;99.90
1800;DHT22;919;48.274;12.292;2023-12-07T03:07:29;-1.80;99.90
1800;DHT22;919;48.274;12.292;2023-12-07T03:09:56;-1.80;99.90
1800;DHT22;919;48.274;12.292;2023-12-07T03:12:22;-2.20;99.90
1800;DHT22;919;48.274;12.292;2023-12-07T03:14:49;-2.50;99.90
1800;DHT22;919;48.274;12.292;2023-12-07T03:17:16;-2.90;99.90
1800;DHT22;919;48.274;12.292;2023-12-07T03:19:44;-3.30;99.90
1800;DHT22;919;48.274;12.292;2023-12-07T03:22:11;-3.40;99.90
1800;DHT22;919;48.274;12.292;2023-12-07T03:24:39;-3.30;99.90
1800;DHT22;919;48.274;12.292;2023-12-07T03:27:06;-3.30;99.90
1800;DHT22;919;48.274;12.292;2023-12-07T03:29:33;-3.30;99.90
1800;DHT22;919;48.274;12.292;2023-12-07T03:31:59;-3.40;99.90
1800;DHT22;919;48.274;12.292;2023-12-07T03:34:26;-3.60;99.90
1800;DHT22;919;48.274;12.292;2023-12-07T03:36:54;-3.70;99.90
1800;DHT22;919;48.274;12.292;2023-12-07T03:39:21;-3.70;99.90
1800;DHT22;919;48.274;12.292;2023-12-07T03:41:48;-3.50;99.90
1800;DHT22;919;48.274;12.292;2023-12-07T03:44:15;-3.40;99.90
1800;DHT22;919;48.274;12.292;2023-12-07T03:46:41;-3.20;99.90
1800;DHT22;919;48.274;12.292;2023-12-07T03:49:08;-3.20;99.90
1800;DHT22;919;48.274;12.292;2023-12-07T03:51:35;-3.00;99.90
1800;DHT22;919;48.274;12.292;2023-12-07T03:54:03;-2.90;99.90
1800;DHT22;919;48.274;12.292;2023-12-07T03:56:32;-2.90;99.90
1800;DHT22;919;48.274;12.292;2023-12-07T03:58:59;-2.80;99.90
1800;DHT22;919;48.274;12.292;2023-12-07T04:01:27;-2.70;99.90
1800;DHT22;919;48.274;12.292;2023-12-07T04:03:55;-2.70;99.90
1800;DHT22;919;48.274;12.292;2023-12-07T04:06:22;-2.60;99.90
1800;DHT22;919;48.274;12.292;2023-12-07T04:08:49;-2.50;99.90
1800;DHT22;919;48.274;12.292;2023-12-07T04:11:18;-2.50;99.90
1800;DHT22;919;48.274;12.292;2023-12-07T04:13:46;-2.50;99.90
1800;DHT22;919;48.274;12.292;2023-12-07T04:16:13;-2.40;99.90
1800;DHT22;919;48.274;12.292;2023-12-07T04:18:40;-2.40;99.90
1800;DHT22;919;48.274;12.292;2023-12-07T04:21:06;-2.30;99.90
1800;DHT22;919;48.274;12.292;2023-12-07T04:23:33;-2.20;99.90
1800;DHT22;919;48.274;12.292;2023-12-07T04:26:00;-2.10;99.90
1800;DHT22;919;48.274;12.292;2023-12-07T04:28:28;-2.00;99.90
1800;DHT22;919;48.274;12.292;2023-12-07T04:30:55;-1.90;99.90
1800;DHT22;919;48.274;12.292;2023-12-07T04:33:21;-1.90;99.90
1800;DHT22;919;48.274;12.292;2023-12-07T04:35:48;-1.90;99.90
1800;DHT22;919;48.274;12.292;2023-12-07T04:38:15;-2.00;99.90
1800;DHT22;919;48.274;12.292;2023-12-07T04:40:42;-2.00;99.90
1800;DHT22;919;48.274;12.292;2023-12-07T04:43:09;-2.20;99.90
1800;DHT22;919;48.274;12.292;2023-12-07T04:45:37;-2.20;99.90
1800;DHT22;919;48.274;12.292;2023-12-07T04:48:04;-2.30;99.90
1800;DHT22;919;48.274;12.292;2023-12-07T04:50:31;-2.40;99.90
1800;DHT22;919;48.274;12.292;2023-12-07T04:52:57;-2.30;99.90
1800;DHT22;919;48.274;12.292;2023-12-07T04:55:24;-2.30;99.90
1800;DHT22;919;48.274;12.292;2023-12-07T04:57:51;-2.30;99.90
1800;DHT22;919;48.274;12.292;2023-12-07T05:00:18;-2.40;99.90
1800;DHT22;919;48.274;12.292;2023-12-07T05:02:47;-2.50;99.90
1800;DHT22;919;48.274;12.292;2023-12-07T05:05:13;-2.50;99.90
1800;DHT22;919;48.274;12.292;2023-12-07T05:07:40;-2.60;99.90
1800;DHT22;919;48.274;12.292;2023-12-07T05:10:07;-2.80;99.90
1800;DHT22;919;48.274;12.292;2023-12-07T05:12:34;-3.10;99.90
1800;DHT22;919;48.274;12.292;2023-12-07T05:15:02;-3.70;99.90
1800;DHT22;919;48.274;12.292;2023-12-07T05:17:29;-4.30;99.90
1800;DHT22;919;48.274;12.292;2023-12-07T05:19:57;-4.50;99.90
1800;DHT22;919;48.274;12.292;2023-12-07T05:22:24;-4.30;99.90
1800;DHT22;919;48.274;12.292;2023-12-07T05:24:51;-4.20;99.90
1800;DHT22;919;48.274;12.292;2023-12-07T05:27:17;-4.10;99.90
1800;DHT22;919;48.274;12.292;2023-12-07T05:29:44;-4.10;99.90
1800;DHT22;919;48.274;12.292;2023-12-07T05:32:11;-4.00;99.90
1800;DHT22;919;48.274;12.292;2023-12-07T05:34:38;-4.00;99.90
1800;DHT22;919;48.274;12.292;2023-12-07T05:37:06;-4.00;99.90
1800;DHT22;919;48.274;12.292;2023-12-07T05:39:32;-4.00;99.90
1800;DHT22;919;48.274;12.292;2023-12-07T05:41:59;-4.00;99.90
1800;DHT22;919;48.274;12.292;2023-12-07T05:44:25;-3.90;99.90
1800;DHT22;919;48.274;12.292;2023-12-07T05:46:52;-3.90;99.90
1800;DHT22;919;48.274;12.292;2023-12-07T05:49:20;-3.90;99.90
1800;DHT22;919;48.274;12.292;2023-12-07T05:51:47;-3.90;99.90
1800;DHT22;919;48.274;12.292;2023-12-07T05:54:15;-3.80;99.90
1800;DHT22;919;48.274;12.292;2023-12-07T05:56:42;-3.90;99.90
1800;DHT22;919;48.274;12.292;2023-12-07T05:59:10;-3.90;99.90
1800;DHT22;919;48.274;12.292;2023-12-07T06:01:36;-3.80;99.90
1800;DHT22;919;48.274;12.292;2023-12-07T06:04:03;-3.70;99.90
1800;DHT22;919;48.274;12.292;2023-12-07T06:06:30;-3.70;99.90
1800;DHT22;919;48.274;12.292;2023-12-07T06:08:57;-3.70;99.90
1800;DHT22;919;48.274;12.292;2023-12-07T06:11:25;-3.80;99.90
1800;DHT22;919;48.274;12.292;2023-12-07T06:13:51;-3.80;99.90
1800;DHT22;919;48.274;12.292;2023-12-07T06:16:18;-3.70;99.90
1800;DHT22;919;48.274;12.292;2023-12-07T06:18:45;-3.70;99.90
1800;DHT22;919;48.274;12.292;2023-12-07T06:21:13;-3.60;99.90
1800;DHT22;919;48.274;12.292;2023-12-07T06:23:40;-3.60;99.90
1800;DHT22;919;48.274;12.292;2023-12-07T06:26:07;-3.50;99.90
1800;DHT22;919;48.274;12.292;2023-12-07T06:28:35;-3.50;99.90
1800;DHT22;919;48.274;12.292;2023-12-07T06:31:05;-3.40;99.90
1800;DHT22;919;48.274;12.292;2023-12-07T06:33:32;-3.40;99.90
1800;DHT22;919;48.274;12.292;2023-12-07T06:36:00;-3.30;99.90
1800;DHT22;919;48.274;12.292;2023-12-07T06:38:26;-3.20;99.90
1800;DHT22;919;48.274;12.292;2023-12-07T06:40:53;-3.30;99.90
1800;DHT22;919;48.274;12.292;2023-12-07T06:43:20;-4.00;99.90
1800;DHT22;919;48.274;12.292;2023-12-07T06:45:48;-4.50;99.90
1800;DHT22;919;48.274;12.292;2023-12-07T06:48:14;-4.70;99.90
1800;DHT22;919;48.274;12.292;2023-12-07T06:50:41;-4.50;99.90
1800;DHT22;919;48.274;12.292;2023-12-07T06:53:08;-4.50;99.90
1800;DHT22;919;48.274;12.292;2023-12-07T06:55:34;-4.50;99.90
1800;DHT22;919;48.274;12.292;2023-12-07T06:58:01;-4.40;99.90
1800;DHT22;919;48.274;12.292;2023-12-07T07:00:28;-4.10;99.90
1800;DHT22;919;48.274;12.292;2023-12-07T07:02:56;-4.30;99.90
1800;DHT22;919;48.274;12.292;2023-12-07T07:05:23;-4.50;99.90
1800;DHT22;919;48.274;12.292;2023-12-07T07:07:50;-4.50;99.90
1800;DHT22;919;48.274;12.292;2023-12-07T07:10:17;-4.40;99.90
1800;DHT22;919;48.274;12.292;2023-12-07T07:12:43;-4.40;99.90
1800;DHT22;919;48.274;12.292;2023-12-07T07:15:10;-4.30;99.90
1800;DHT22;919;48.274;12.292;2023-12-07T07:17:37;-4.20;99.90
1800;DHT22;919;48.274;12.292;2023-12-07T07:20:06;-4.00;99.90
1800;DHT22;919;48.274;12.292;2023-12-07T07:22:33;-4.00;99.90
1800;DHT22;919;48.274;12.292;2023-12-07T07:25:00;-4.00;99.90
1800;DHT22;919;48.274;12.292;2023-12-07T07:27:25;-4.00;99.90
1800;DHT22;919;48.274;12.292;2023-12-07T07:29:52;-4.00;99.90
1800;DHT22;919;48.274;12.292;2023-12-07T07:32:19;-4.20;99.90
1800;DHT22;919;48.274;12.292;2023-12-07T07:34:45;-4.40;99.90
1800;DHT22;919;48.274;12.292;2023-12-07T07:37:13;-4.50;99.90
1800;DHT22;919;48.274;12.292;2023-12-07T07:39:40;-4.60;99.90
1800;DHT22;919;48.274;12.292;2023-12-07T07:42:07;-4.60;99.90
1800;DHT22;919;48.274;12.292;2023-12-07T07:44:33;-4.50;99.90
1800;DHT22;919;48.274;12.292;2023-12-07T07:47:00;-4.40;99.90
1800;DHT22;919;48.274;12.292;2023-12-07T07:49:27;-4.40;99.90
1800;DHT22;919;48.274;12.292;2023-12-07T07:51:53;-4.40;99.90
1800;DHT22;919;48.274;12.292;2023-12-07T07:54:21;-4.40;99.90
1800;DHT22;919;48.274;12.292;2023-12-07T07:56:48;-4.30;99.90
1800;DHT22;919;48.274;12.292;2023-12-07T07:59:15;-4.30;99.90
1800;DHT22;919;48.274;12.292;2023-12-07T08:01:42;-4.30;99.90
1800;DHT22;919;48.274;12.292;2023-12-07T08:04:09;-4.10;99.90
1800;DHT22;919;48.274;12.292;2023-12-07T08:06:37;-4.10;99.90
1800;DHT22;919;48.274;12.292;2023-12-07T08:09:04;-4.00;99.90
1800;DHT22;919;48.274;12.292;2023-12-07T08:11:32;-4.00;99.90
1800;DHT22;919;48.274;12.292;2023-12-07T08:13:59;-4.20;99.90
1800;DHT22;919;48.274;12.292;2023-12-07T08:16:25;-4.10;99.90
1800;DHT22;919;48.274;12.292;2023-12-07T08:18:53;-4.10;99.90
1800;DHT22;919;48.274;12.292;2023-12-07T08:21:20;-4.10;99.90
1800;DHT22;919;48.274;12.292;2023-12-07T08:23:47;-4.20;99.90
1800;DHT22;919;48.274;12.292;2023-12-07T08:26:14;-4.30;99.90
1800;DHT22;919;48.274;12.292;2023-12-07T08:28:42;-4.40;99.90
1800;DHT22;919;48.274;12.292;2023-12-07T08:31:09;-4.20;99.90
1800;DHT22;919;48.274;12.292;2023-12-07T08:33:36;-4.00;99.90
1800;DHT22;919;48.274;12.292;2023-12-07T08:36:05;-3.90;99.90
1800;DHT22;919;48.274;12.292;2023-12-07T08:38:33;-3.70;99.90
1800;DHT22;919;48.274;12.292;2023-12-07T08:41:00;-3.50;99.90
1800;DHT22;919;48.274;12.292;2023-12-07T08:43:28;-3.40;99.90
1800;DHT22;919;48.274;12.292;2023-12-07T08:45:57;-3.30;99.90
1800;DHT22;919;48.274;12.292;2023-12-07T08:48:24;-3.10;99.90
1800;DHT22;919;48.274;12.292;2023-12-07T08:50:50;-3.10;99.90
1800;DHT22;919;48.274;12.292;2023-12-07T08:53:17;-3.00;99.90
1800;DHT22;919;48.274;12.292;2023-12-07T08:55:44;-2.90;99.90
1800;DHT22;919;48.274;12.292;2023-12-07T08:58:11;-2.90;99.90
1800;DHT22;919;48.274;12.292;2023-12-07T09:00:38;-2.90;99.90
1800;DHT22;919;48.274;12.292;2023-12-07T09:03:06;-2.90;99.90
1800;DHT22;919;48.274;12.292;2023-12-07T09:05:32;-2.70;99.90
1800;DHT22;919;48.274;12.292;2023-12-07T09:07:59;-2.50;99.90
1800;DHT22;919;48.274;12.292;2023-12-07T09:10:26;-2.40;99.90
1800;DHT22;919;48.274;12.292;2023-12-07T09:12:53;-2.20;99.90
1800;DHT22;919;48.274;12.292;2023-12-07T09:15:20;-2.00;99.90
1800;DHT22;919;48.274;12.292;2023-12-07T09:17:47;-1.90;99.90
1800;DHT22;919;48.274;12.292;2023-12-07T09:20:16;-1.80;99.90
1800;DHT22;919;48.274;12.292;2023-12-07T09:22:43;-1.70;99.90
1800;DHT22;919;48.274;12.292;2023-12-07T09:25:11;-1.80;99.90
1800;DHT22;919;48.274;12.292;2023-12-07T09:27:38;-2.00;99.90
1800;DHT22;919;48.274;12.292;2023-12-07T09:30:06;-1.80;99.90
1800;DHT22;919;48.274;12.292;2023-12-07T09:32:36;-1.60;99.90
1800;DHT22;919;48.274;12.292;2023-12-07T09:35:04;-1.40;99.90
1800;DHT22;919;48.274;12.292;2023-12-07T09:37:33;-1.40;99.90
1800;DHT22;919;48.274;12.292;2023-12-07T09:39:59;-1.30;99.90
1800;DHT22;919;48.274;12.292;2023-12-07T09:42:26;-1.20;99.90
1800;DHT22;919;48.274;12.292;2023-12-07T09:44:54;-1.20;99.90
1800;DHT22;919;48.274;12.292;2023-12-07T09:47:21;-1.10;99.90
1800;DHT22;919;48.274;12.292;2023-12-07T09:49:47;-0.90;99.90
1800;DHT22;919;48.274;12.292;2023-12-07T09:52:15;-0.70;99.90
1800;DHT22;919;48.274;12.292;2023-12-07T09:54:44;-0.50;99.90
1800;DHT22;919;48.274;12.292;2023-12-07T09:57:11;-0.40;99.90
1800;DHT22;919;48.274;12.292;2023-12-07T09:59:39;-0.20;99.90
1800;DHT22;919;48.274;12.292;2023-12-07T10:02:06;-0.10;99.90
1800;DHT22;919;48.274;12.292;2023-12-07T10:04:34;0.10;99.90
1800;DHT22;919;48.274;12.292;2023-12-07T10:07:02;-0.10;99.90
1800;DHT22;919;48.274;12.292;2023-12-07T10:09:28;-0.10;99.90
1800;DHT22;919;48.274;12.292;2023-12-07T10:12:03;-0.10;99.90
1800;DHT22;919;48.274;12.292;2023-12-07T10:14:30;-0.20;99.90
1800;DHT22;919;48.274;12.292;2023-12-07T10:16:57;-0.10;99.90
1800;DHT22;919;48.274;12.292;2023-12-07T10:19:24;0.10;99.90
1800;DHT22;919;48.274;12.292;2023-12-07T10:21:51;0.20;99.90
1800;DHT22;919;48.274;12.292;2023-12-07T10:24:19;0.40;99.90
1800;DHT22;919;48.274;12.292;2023-12-07T10:26:46;0.60;99.90
1800;DHT22;919;48.274;12.292;2023-12-07T10:29:16;0.70;99.90
1800;DHT22;919;48.274;12.292;2023-12-07T10:31:43;0.80;99.90
1800;DHT22;919;48.274;12.292;2023-12-07T10:34:12;0.70;99.90
1800;DHT22;919;48.274;12.292;2023-12-07T10:36:39;0.80;99.90
1800;DHT22;919;48.274;12.292;2023-12-07T10:39:06;0.70;99.90
1800;DHT22;919;48.274;12.292;2023-12-07T10:41:34;0.80;99.90
1800;DHT22;919;48.274;12.292;2023-12-07T10:44:06;0.90;99.90
1800;DHT22;919;48.274;12.292;2023-12-07T10:46:34;1.00;99.90
1800;DHT22;919;48.274;12.292;2023-12-07T10:49:04;1.10;99.90
1800;DHT22;919;48.274;12.292;2023-12-07T10:51:38;1.30;99.90
1800;DHT22;919;48.274;12.292;2023-12-07T10:54:07;1.30;99.90
1800;DHT22;919;48.274;12.292;2023-12-07T10:56:39;1.30;99.90
1800;DHT22;919;48.274;12.292;2023-12-07T10:59:08;1.40;99.90
1800;DHT22;919;48.274;12.292;2023-12-07T11:01:38;1.50;99.90
1800;DHT22;919;48.274;12.292;2023-12-07T11:04:05;1.60;99.90
1800;DHT22;919;48.274;12.292;2023-12-07T11:06:33;1.80;99.90
1800;DHT22;919;48.274;12.292;2023-12-07T11:09:02;1.70;99.90
1800;DHT22;919;48.274;12.292;2023-12-07T11:11:38;1.70;99.90
1800;DHT22;919;48.274;12.292;2023-12-07T11:14:09;1.80;99.90
1800;DHT22;919;48.274;12.292;2023-12-07T11:16:41;2.00;99.90
1800;DHT22;919;48.274;12.292;2023-12-07T11:22:10;2.10;99.90
1800;DHT22;919;48.274;12.292;2023-12-07T11:24:37;2.40;99.90
1800;DHT22;919;48.274;12.292;2023-12-07T11:27:04;2.60;99.90
1800;DHT22;919;48.274;12.292;2023-12-07T11:29:32;2.50;99.90
1800;DHT22;919;48.274;12.292;2023-12-07T11:32:02;2.60;99.90
1800;DHT22;919;48.274;12.292;2023-12-07T11:34:35;2.70;99.90
1800;DHT22;919;48.274;12.292;2023-12-07T11:37:02;2.80;99.90
1800;DHT22;919;48.274;12.292;2023-12-07T11:39:29;2.90;99.90
1800;DHT22;919;48.274;12.292;2023-12-07T11:42:06;2.80;99.90
1800;DHT22;919;48.274;12.292;2023-12-07T11:44:34;2.60;99.90
1800;DHT22;919;48.274;12.292;2023-12-07T11:47:02;2.60;99.90
1800;DHT22;919;48.274;12.292;2023-12-07T11:49:30;2.60;99.90
1800;DHT22;919;48.274;12.292;2023-12-07T11:51:57;2.60;99.90
1800;DHT22;919;48.274;12.292;2023-12-07T11:54:23;2.60;99.90
1800;DHT22;919;48.274;12.292;2023-12-07T11:56:52;2.70;99.90
1800;DHT22;919;48.274;12.292;2023-12-07T11:59:19;2.90;99.90
1800;DHT22;919;48.274;12.292;2023-12-07T12:01:46;2.90;99.90
1800;DHT22;919;48.274;12.292;2023-12-07T12:04:15;3.00;99.90
1800;DHT22;919;48.274;12.292;2023-12-07T12:06:43;3.00;99.90
1800;DHT22;919;48.274;12.292;2023-12-07T12:09:12;2.90;99.90
1800;DHT22;919;48.274;12.292;2023-12-07T12:11:44;2.70;99.90
1800;DHT22;919;48.274;12.292;2023-12-07T12:14:12;2.90;99.90
1800;DHT22;919;48.274;12.292;2023-12-07T12:16:39;3.10;99.90
1800;DHT22;919;48.274;12.292;2023-12-07T12:19:05;3.30;99.90
1800;DHT22;919;48.274;12.292;2023-12-07T12:21:35;3.40;99.90
1800;DHT22;919;48.274;12.292;2023-12-07T12:24:04;3.50;99.90
1800;DHT22;919;48.274;12.292;2023-12-07T12:26:32;3.50;99.90
1800;DHT22;919;48.274;12.292;2023-12-07T12:28:59;3.60;99.90
1800;DHT22;919;48.274;12.292;2023-12-07T12:31:26;3.70;99.90
1800;DHT22;919;48.274;12.292;2023-12-07T12:33:53;3.70;99.90
1800;DHT22;919;48.274;12.292;2023-12-07T12:36:20;3.80;99.90
1800;DHT22;919;48.274;12.292;2023-12-07T12:38:50;3.90;99.90
1800;DHT22;919;48.274;12.292;2023-12-07T12:41:18;3.80;99.90
1800;DHT22;919;48.274;12.292;2023-12-07T12:43:45;3.70;99.90
1800;DHT22;919;48.274;12.292;2023-12-07T12:46:12;3.20;99.90
1800;DHT22;919;48.274;12.292;2023-12-07T12:48:53;2.80;99.90
1800;DHT22;919;48.274;12.292;2023-12-07T12:51:20;2.80;99.90
1800;DHT22;919;48.274;12.292;2023-12-07T12:53:51;3.00;99.90
1800;DHT22;919;48.274;12.292;2023-12-07T12:56:18;3.10;99.90
1800;DHT22;919;48.274;12.292;2023-12-07T12:58:45;3.00;99.90
1800;DHT22;919;48.274;12.292;2023-12-07T13:01:12;3.10;99.90
1800;DHT22;919;48.274;12.292;2023-12-07T13:03:39;3.10;99.90
1800;DHT22;919;48.274;12.292;2023-12-07T13:06:06;3.20;99.90
1800;DHT22;919;48.274;12.292;2023-12-07T13:08:32;3.20;99.90
1800;DHT22;919;48.274;12.292;2023-12-07T13:11:00;3.00;99.90
1800;DHT22;919;48.274;12.292;2023-12-07T13:13:28;3.20;99.90
1800;DHT22;919;48.274;12.292;2023-12-07T13:15:55;3.40;99.90
1800;DHT22;919;48.274;12.292;2023-12-07T13:18:21;3.40;99.90
1800;DHT22;919;48.274;12.292;2023-12-07T13:20:48;3.40;99.90
1800;DHT22;919;48.274;12.292;2023-12-07T13:23:15;3.20;99.90
1800;DHT22;919;48.274;12.292;2023-12-07T13:25:41;2.90;99.90
1800;DHT22;919;48.274;12.292;2023-12-07T13:28:09;2.90;99.90
1800;DHT22;919;48.274;12.292;2023-12-07T13:30:36;3.10;99.90
1800;DHT22;919;48.274;12.292;2023-12-07T13:33:04;3.10;99.90
1800;DHT22;919;48.274;12.292;2023-12-07T13:35:32;3.00;99.90
1800;DHT22;919;48.274;12.292;2023-12-07T13:37:59;2.80;99.90
1800;DHT22;919;48.274;12.292;2023-12-07T13:40:25;2.70;99.90
1800;DHT22;919;48.274;12.292;2023-12-07T13:42:52;2.60;99.90
1800;DHT22;919;48.274;12.292;2023-12-07T13:45:20;2.60;99.90
1800;DHT22;919;48.274;12.292;2023-12-07T13:47:47;2.50;99.90
1800;DHT22;919;48.274;12.292;2023-12-07T13:50:14;2.50;99.90
1800;DHT22;919;48.274;12.292;2023-12-07T13:52:40;2.30;99.90
1800;DHT22;919;48.274;12.292;2023-12-07T13:55:08;2.20;99.90
1800;DHT22;919;48.274;12.292;2023-12-07T13:57:35;2.10;99.90
1800;DHT22;919;48.274;12.292;2023-12-07T14:00:01;2.10;99.90
1800;DHT22;919;48.274;12.292;2023-12-07T14:02:29;2.00;99.90
1800;DHT22;919;48.274;12.292;2023-12-07T14:04:56;2.00;99.90
1800;DHT22;919;48.274;12.292;2023-12-07T14:07:23;1.90;99.90
1800;DHT22;919;48.274;12.292;2023-12-07T14:09:50;1.70;99.90
1800;DHT22;919;48.274;12.292;2023-12-07T14:12:18;1.60;99.90
1800;DHT22;919;48.274;12.292;2023-12-07T14:14:47;1.50;99.90
1800;DHT22;919;48.274;12.292;2023-12-07T14:17:14;1.40;99.90
1800;DHT22;919;48.274;12.292;2023-12-07T14:19:43;1.50;99.90
1800;DHT22;919;48.274;12.292;2023-12-07T14:22:10;1.60;99.90
1800;DHT22;919;48.274;12.292;2023-12-07T14:24:37;1.70;99.90
1800;DHT22;919;48.274;12.292;2023-12-07T14:27:04;1.70;99.90
1800;DHT22;919;48.274;12.292;2023-12-07T14:29:32;1.60;99.90
1800;DHT22;919;48.274;12.292;2023-12-07T14:31:59;1.30;99.90
1800;DHT22;919;48.274;12.292;2023-12-07T14:34:26;1.20;99.90
1800;DHT22;919;48.274;12.292;2023-12-07T14:36:54;1.00;99.90
1800;DHT22;919;48.274;12.292;2023-12-07T14:39:21;0.90;99.90
1800;DHT22;919;48.274;12.292;2023-12-07T14:41:48;0.70;99.90
1800;DHT22;919;48.274;12.292;2023-12-07T14:44:16;0.60;99.90
1800;DHT22;919;48.274;12.292;2023-12-07T14:46:43;0.40;99.90
1800;DHT22;919;48.274;12.292;2023-12-07T14:49:12;0.40;99.90
1800;DHT22;919;48.274;12.292;2023-12-07T14:51:39;0.20;99.90
1800;DHT22;919;48.274;12.292;2023-12-07T14:54:07;0.10;99.90
1800;DHT22;919;48.274;12.292;2023-12-07T14:56:35;-0.10;99.90
1800;DHT22;919;48.274;12.292;2023-12-07T14:59:02;-0.30;99.90
1800;DHT22;919;48.274;12.292;2023-12-07T15:01:29;-0.50;99.90
1800;DHT22;919;48.274;12.292;2023-12-07T15:03:56;-0.70;99.90
1800;DHT22;919;48.274;12.292;2023-12-07T15:06:23;-0.80;99.90
1800;DHT22;919;48.274;12.292;2023-12-07T15:08:50;-0.80;99.90
1800;DHT22;919;48.274;12.292;2023-12-07T15:11:18;-0.90;99.90
1800;DHT22;919;48.274;12.292;2023-12-07T15:13:45;-1.10;99.90
1800;DHT22;919;48.274;12.292;2023-12-07T15:16:12;-1.30;99.90
1800;DHT22;919;48.274;12.292;2023-12-07T15:18:39;-1.50;99.90
1800;DHT22;919;48.274;12.292;2023-12-07T15:21:10;-1.60;99.90
1800;DHT22;919;48.274;12.292;2023-12-07T15:23:38;-1.80;99.90
1800;DHT22;919;48.274;12.292;2023-12-07T15:26:05;-1.70;99.90
1800;DHT22;919;48.274;12.292;2023-12-07T15:28:34;-1.70;99.90
1800;DHT22;919;48.274;12.292;2023-12-07T15:31:01;-1.80;99.90
1800;DHT22;919;48.274;12.292;2023-12-07T15:33:28;-1.90;99.90
1800;DHT22;919;48.274;12.292;2023-12-07T15:35:56;-2.00;99.90
1800;DHT22;919;48.274;12.292;2023-12-07T15:38:23;-1.90;99.90
1800;DHT22;919;48.274;12.292;2023-12-07T15:40:49;-2.00;99.90
1800;DHT22;919;48.274;12.292;2023-12-07T15:43:17;-2.10;99.90
1800;DHT22;919;48.274;12.292;2023-12-07T15:45:45;-2.30;99.90
1800;DHT22;919;48.274;12.292;2023-12-07T15:48:12;-2.40;99.90
1800;DHT22;919;48.274;12.292;2023-12-07T15:50:38;-2.50;99.90
1800;DHT22;919;48.274;12.292;2023-12-07T15:53:05;-2.60;99.90
1800;DHT22;919;48.274;12.292;2023-12-07T15:55:32;-2.70;99.90
1800;DHT22;919;48.274;12.292;2023-12-07T15:57:59;-2.90;99.90
1800;DHT22;919;48.274;12.292;2023-12-07T16:00:26;-2.90;99.90
1800;DHT22;919;48.274;12.292;2023-12-07T16:02:54;-3.00;99.90
1800;DHT22;919;48.274;12.292;2023-12-07T16:05:21;-3.10;99.90
1800;DHT22;919;48.274;12.292;2023-12-07T16:07:48;-3.20;99.90
1800;DHT22;919;48.274;12.292;2023-12-07T16:10:14;-3.20;99.90